Time;durP1;ratioP1;P1;durP2;ratioP2;P2;SDS_P1;SDS_P2;PMS_P1;PMS_P2;Temp;Humidity;BMP_temperature;BMP_pressure;BME280_temperature;BME280_humidity;BME280_pressure;Samples;Min_cycle;Max_cycle;Signal;HPM_P1;HPM_P2
2022/05/14 04:03:32;;;;;;;12.23;11.03;;;9.60;99.90;;;;;;5732534;24;20183;-79
2022/05/14 04:06:01;;;;;;;12.83;11.43;;;9.60;99.90;;;;;;4847302;29;20226;-79
2022/05/14 04:08:30;;;;;;;13.57;11.73;;;9.70;99.90;;;;;;4845972;29;20666;-79
2022/05/14 04:10:58;;;;;;;12.70;11.03;;;9.80;99.90;;;;;;4855358;29;20253;-79
2022/05/14 04:13:27;;;;;;;11.80;10.60;;;10.00;99.90;;;;;;4866887;29;20632;-79
2022/05/14 04:15:55;;;;;;;12.20;10.07;;;9.90;99.90;;;;;;4868114;29;20215;-79
2022/05/14 04:18:25;;;;;;;13.20;10.13;;;9.90;99.90;;;;;;4867505;29;20222;-80
2022/05/14 04:20:56;;;;;;;13.83;10.27;;;10.00;99.90;;;;;;4865840;29;20235;-79
2022/05/14 04:23:28;;;;;;;10.90;9.80;;;10.00;99.90;;;;;;4864160;29;20199;-79
2022/05/14 04:25:57;;;;;;;12.13;10.37;;;10.20;99.90;;;;;;4868039;29;20211;-79
2022/05/14 04:28:27;;;;;;;11.67;10.47;;;10.40;99.90;;;;;;4870725;29;20223;-80
2022/05/14 04:30:55;;;;;;;12.93;10.27;;;10.30;99.90;;;;;;4872368;29;20291;-80
2022/05/14 04:33:25;;;;;;;15.20;11.07;;;10.40;99.90;;;;;;4871414;29;20271;-79
2022/05/14 04:35:55;;;;;;;14.90;11.00;;;10.50;99.90;;;;;;4867722;29;20219;-79
2022/05/14 04:38:24;;;;;;;12.60;11.13;;;10.60;99.90;;;;;;4871727;29;20207;-80
2022/05/14 04:40:52;;;;;;;12.40;10.97;;;10.70;99.90;;;;;;4871333;29;20608;-79
2022/05/14 04:43:20;;;;;;;13.70;11.40;;;10.80;99.90;;;;;;4873143;29;20219;-79
2022/05/14 04:45:49;;;;;;;14.20;11.50;;;10.80;99.90;;;;;;4872482;29;20257;-80
2022/05/14 04:48:17;;;;;;;13.17;11.87;;;10.90;99.90;;;;;;4871860;29;20227;-79
2022/05/14 04:50:46;;;;;;;13.40;11.40;;;10.90;99.90;;;;;;4869252;29;20276;-80
2022/05/14 04:53:17;;;;;;;15.87;12.13;;;11.00;99.90;;;;;;4874223;29;20215;-80
2022/05/14 04:55:47;;;;;;;14.40;11.90;;;11.00;99.90;;;;;;4875002;29;20237;-79
2022/05/14 04:58:16;;;;;;;14.00;11.77;;;11.10;99.90;;;;;;4862483;29;20224;-78
2022/05/14 05:00:46;;;;;;;14.37;11.23;;;11.10;99.90;;;;;;4846183;29;20300;-78
2022/05/14 05:03:19;;;;;;;12.83;11.23;;;11.10;99.90;;;;;;4846200;29;20216;-78
2022/05/14 05:05:50;;;;;;;13.57;11.50;;;11.10;99.90;;;;;;4846173;29;20530;-79
2022/05/14 05:08:20;;;;;;;15.30;10.93;;;11.10;99.90;;;;;;4845103;29;20713;-78
2022/05/14 05:10:49;;;;;;;13.63;12.23;;;11.30;99.90;;;;;;4844505;29;20262;-79
2022/05/14 05:13:19;;;;;;;13.97;12.50;;;11.10;99.90;;;;;;4843726;29;20240;-79
2022/05/14 05:15:48;;;;;;;14.23;11.33;;;11.20;99.90;;;;;;4844073;29;20212;-78
2022/05/14 05:18:17;;;;;;;13.33;11.77;;;11.30;99.90;;;;;;4844198;29;20307;-79
2022/05/14 05:20:49;;;;;;;12.63;11.33;;;11.30;99.90;;;;;;4843711;29;20215;-80
2022/05/14 05:23:20;;;;;;;14.20;11.07;;;11.40;99.90;;;;;;4843540;29;20192;-80
2022/05/14 05:25:49;;;;;;;13.27;11.00;;;11.40;99.90;;;;;;4843920;29;20220;-79
2022/05/14 05:28:18;;;;;;;12.37;10.47;;;11.70;99.90;;;;;;4844300;29;20216;-78
2022/05/14 05:30:47;;;;;;;11.93;10.23;;;11.80;99.90;;;;;;4844538;29;20627;-78
2022/05/14 05:33:17;;;;;;;11.97;9.83;;;11.90;99.90;;;;;;4843950;29;20301;-81
2022/05/14 05:35:46;;;;;;;9.87;8.93;;;12.10;99.90;;;;;;4844249;29;20292;-78
2022/05/14 05:38:14;;;;;;;10.30;8.03;;;12.30;99.90;;;;;;4843621;29;20219;-80
2022/05/14 05:40:44;;;;;;;8.60;7.80;;;12.40;99.90;;;;;;4844857;29;20215;-80
2022/05/14 05:43:13;;;;;;;12.77;7.90;;;12.60;99.90;;;;;;4843589;29;20689;-80
2022/05/14 05:45:45;;;;;;;11.60;8.03;;;12.70;99.90;;;;;;4843661;29;20339;-81
2022/05/14 05:48:13;;;;;;;9.10;7.77;;;12.90;99.90;;;;;;4844243;29;20259;-79
2022/05/14 05:50:44;;;;;;;11.90;7.77;;;13.40;99.90;;;;;;4845466;29;20215;-78
2022/05/14 05:53:13;;;;;;;11.80;7.17;;;14.30;99.90;;;;;;4845902;29;20601;-81
2022/05/14 05:58:30;;;;;;;9.50;6.50;;;16.40;99.90;;;;;;4826540;29;20252;-80
2022/05/14 06:00:59;;;;;;;9.00;7.40;;;17.30;99.90;;;;;;4825427;29;20248;-81
2022/05/14 06:03:27;;;;;;;7.50;6.00;;;17.80;99.90;;;;;;4825728;29;20236;-81
2022/05/14 06:05:55;;;;;;;6.40;5.77;;;17.80;99.90;;;;;;4826232;29;20315;-82
2022/05/14 06:08:25;;;;;;;6.93;5.67;;;17.60;99.90;;;;;;4829794;29;20248;-80
2022/05/14 06:10:55;;;;;;;8.73;5.87;;;18.20;99.90;;;;;;4827593;29;20581;-82
2022/05/14 06:13:23;;;;;;;6.10;5.50;;;18.80;99.90;;;;;;4827052;29;20261;-83
2022/05/14 06:15:53;;;;;;;6.97;5.80;;;19.20;99.90;;;;;;4827224;29;20277;-81
2022/05/14 06:18:21;;;;;;;9.50;5.33;;;19.90;99.90;;;;;;4827871;29;20663;-82
2022/05/14 06:20:49;;;;;;;6.27;4.73;;;19.80;99.90;;;;;;4830799;29;20262;-82
2022/05/14 06:23:18;;;;;;;5.80;4.53;;;20.90;99.90;;;;;;4828815;29;20232;-82
2022/05/14 06:25:47;;;;;;;8.10;4.90;;;21.60;99.90;;;;;;4833155;29;20220;-82
2022/05/14 06:28:15;;;;;;;6.97;4.80;;;22.40;99.90;;;;;;4834368;29;20221;-81
2022/05/14 06:30:44;;;;;;;7.03;4.33;;;23.60;99.90;;;;;;4833696;29;20216;-83
2022/05/14 06:33:17;;;;;;;8.27;4.60;;;24.20;99.90;;;;;;4829550;29;20193;-83
2022/05/14 06:35:46;;;;;;;6.88;4.25;;;25.20;99.90;;;;;;4827368;29;20623;-85
2022/05/14 06:38:15;;;;;;;7.30;4.15;;;24.60;99.90;;;;;;4825107;29;20250;-83
2022/05/14 06:40:46;;;;;;;6.68;4.25;;;24.20;99.90;;;;;;4824154;29;20291;-84
2022/05/14 06:43:16;;;;;;;8.13;4.35;;;24.20;99.90;;;;;;4823983;29;20223;-82
2022/05/14 06:45:44;;;;;;;6.28;4.00;;;24.90;99.90;;;;;;4828031;29;20330;-81
2022/05/14 06:48:14;;;;;;;5.75;3.63;;;25.50;98.30;;;;;;4847766;29;20271;-81
2022/05/14 06:50:46;;;;;;;6.97;3.47;;;26.00;97.80;;;;;;4859959;29;20257;-81
2022/05/14 06:53:17;;;;;;;6.88;3.65;;;26.20;94.10;;;;;;4860231;29;20234;-81
2022/05/14 06:55:48;;;;;;;6.32;3.53;;;26.40;94.90;;;;;;4849991;29;20219;-78
2022/05/14 06:58:21;;;;;;;7.78;3.70;;;25.70;93.00;;;;;;4842237;29;20206;-82
2022/05/14 07:00:50;;;;;;;7.60;3.63;;;25.20;93.90;;;;;;4841710;29;20670;-83
2022/05/14 07:08:52;;;;;;;6.13;4.00;;;24.30;97.10;;;;;;4826996;29;20279;-80
2022/05/14 07:11:21;;;;;;;8.90;3.88;;;24.40;95.40;;;;;;4837445;29;20203;-80
2022/05/14 07:13:51;;;;;;;7.07;3.50;;;24.10;95.40;;;;;;4829160;29;20196;-78
2022/05/14 07:16:19;;;;;;;6.57;3.35;;;24.60;94.00;;;;;;4828314;29;20748;-78
2022/05/14 07:18:49;;;;;;;6.45;3.53;;;24.80;94.70;;;;;;4827538;29;20220;-78
2022/05/14 07:21:17;;;;;;;5.45;3.20;;;25.00;95.20;;;;;;4828362;29;20255;-78
2022/05/14 07:23:45;;;;;;;4.63;2.72;;;26.40;93.20;;;;;;4827114;29;20232;-79
2022/05/14 07:26:13;;;;;;;4.97;2.70;;;26.90;91.20;;;;;;4824875;29;20672;-78
2022/05/14 07:28:41;;;;;;;7.30;2.78;;;26.90;86.30;;;;;;4823453;29;20296;-79
2022/05/14 07:31:10;;;;;;;5.57;2.72;;;27.30;85.10;;;;;;4822850;29;20238;-78
2022/05/14 07:33:38;;;;;;;6.30;2.80;;;27.70;84.20;;;;;;4825924;29;20252;-79
2022/05/14 07:36:15;;;;;;;7.18;2.95;;;27.90;78.90;;;;;;4826483;29;20315;-79
2022/05/14 07:38:43;;;;;;;6.38;2.92;;;27.40;81.10;;;;;;4826267;29;20279;-76
2022/05/14 07:41:13;;;;;;;5.78;2.90;;;27.80;77.80;;;;;;4833503;29;20223;-78
2022/05/14 07:43:43;;;;;;;5.95;3.00;;;27.70;82.80;;;;;;4844396;29;20238;-78
2022/05/14 07:46:16;;;;;;;5.13;2.88;;;27.00;85.70;;;;;;4844508;29;20263;-77
2022/05/14 07:48:46;;;;;;;7.20;2.80;;;26.50;89.30;;;;;;4844576;29;20200;-77
2022/05/14 07:51:15;;;;;;;4.20;2.53;;;26.20;84.20;;;;;;4844164;29;20283;-77
2022/05/14 07:53:43;;;;;;;4.60;2.58;;;26.70;84.00;;;;;;4844196;29;20406;-76
2022/05/14 07:56:11;;;;;;;6.97;2.75;;;26.70;84.00;;;;;;4844277;29;20298;-77
2022/05/14 07:58:42;;;;;;;5.43;2.90;;;26.90;81.80;;;;;;4843896;29;20247;-77
2022/05/14 08:01:10;;;;;;;3.63;2.38;;;26.50;83.70;;;;;;4843744;29;20215;-78
2022/05/14 08:03:40;;;;;;;4.22;1.90;;;26.90;85.70;;;;;;4843800;29;20275;-78
2022/05/14 08:06:10;;;;;;;4.68;2.50;;;27.00;78.80;;;;;;4844071;29;20215;-78
2022/05/14 08:08:40;;;;;;;4.15;2.10;;;26.90;75.50;;;;;;4844167;29;20227;-77
2022/05/14 08:11:09;;;;;;;5.57;1.95;;;26.30;78.60;;;;;;4843691;29;20278;-78
2022/05/14 08:13:38;;;;;;;6.05;2.53;;;25.60;75.70;;;;;;4843960;29;20236;-77
2022/05/14 08:16:06;;;;;;;7.00;2.45;;;24.70;82.80;;;;;;4843779;29;20704;-76
2022/05/14 08:18:34;;;;;;;7.82;2.38;;;24.10;85.00;;;;;;4843880;29;20212;-76
2022/05/14 08:26:32;;;;;;;4.90;1.73;;;23.40;82.90;;;;;;4843502;29;20302;-76
2022/05/14 08:29:00;;;;;;;7.67;2.07;;;23.60;80.00;;;;;;4843494;29;20272;-75
2022/05/14 08:31:28;;;;;;;7.77;2.70;;;23.70;81.90;;;;;;4843643;29;20226;-75
2022/05/14 08:33:56;;;;;;;8.43;2.53;;;23.30;82.90;;;;;;4843650;29;20303;-77
2022/05/14 08:36:25;;;;;;;6.90;2.10;;;23.40;85.70;;;;;;4843680;29;20307;-78
2022/05/14 08:38:55;;;;;;;5.50;2.22;;;24.20;84.10;;;;;;4843210;29;20682;-76
2022/05/14 08:41:24;;;;;;;4.47;1.80;;;24.10;82.60;;;;;;4843709;29;20663;-75
2022/05/14 08:43:55;;;;;;;4.30;1.85;;;24.70;80.10;;;;;;4843535;29;20322;-78
2022/05/14 08:46:26;;;;;;;4.63;1.70;;;25.10;82.20;;;;;;4843506;29;20288;-77
2022/05/14 08:48:57;;;;;;;3.80;2.20;;;25.20;72.40;;;;;;4844871;29;20658;-79
2022/05/14 08:51:32;;;;;;;8.85;1.98;;;25.50;71.30;;;;;;4844496;29;20212;-79
2022/05/14 08:54:03;;;;;;;3.67;1.50;;;25.70;77.80;;;;;;4843558;29;20200;-77
2022/05/14 08:56:42;;;;;;;4.13;1.70;;;25.90;70.80;;;;;;4842812;29;20322;-77
2022/05/14 08:59:51;;;;;;;4.63;1.67;;;26.70;73.50;;;;;;4843022;29;20215;-79
2022/05/14 09:02:21;;;;;;;6.00;1.73;;;27.10;69.40;;;;;;4841385;29;20251;-79
2022/05/14 09:04:50;;;;;;;6.80;2.03;;;27.60;69.60;;;;;;4842728;29;20272;-78
2022/05/14 09:07:43;;;;;;;4.28;1.80;;;28.60;65.50;;;;;;4842925;29;20211;-78
2022/05/14 09:10:23;;;;;;;5.10;1.75;;;29.80;62.60;;;;;;4842694;29;20690;-78
2022/05/14 09:12:54;;;;;;;6.28;1.95;;;29.80;68.60;;;;;;4842526;29;20230;-79
2022/05/14 09:15:24;;;;;;;9.05;1.90;;;31.30;63.20;;;;;;4842796;29;20210;-80
2022/05/14 09:18:08;;;;;;;3.88;1.73;;;31.20;62.10;;;;;;4842251;29;20242;-80
2022/05/14 09:20:43;;;;;;;5.82;2.13;;;31.10;63.40;;;;;;4842670;29;20204;-81
2022/05/14 09:23:11;;;;;;;3.83;1.77;;;31.60;60.90;;;;;;4842890;29;20286;-80
2022/05/14 09:25:43;;;;;;;7.28;1.98;;;32.20;60.10;;;;;;4842652;29;20220;-81
2022/05/14 09:28:13;;;;;;;7.53;2.20;;;32.20;54.50;;;;;;4842516;29;20258;-81
2022/05/14 09:30:45;;;;;;;4.68;1.88;;;31.60;59.40;;;;;;4843801;29;20307;-80
2022/05/14 09:33:27;;;;;;;6.72;1.95;;;31.60;54.80;;;;;;4842496;29;20695;-81
2022/05/14 09:35:56;;;;;;;4.93;1.92;;;30.90;58.70;;;;;;4842787;29;20256;-79
2022/05/14 09:38:27;;;;;;;4.93;2.17;;;31.70;54.60;;;;;;4842066;29;20280;-80
2022/05/14 09:41:10;;;;;;;4.35;1.70;;;30.60;59.00;;;;;;4841872;29;20314;-79
2022/05/14 09:43:40;;;;;;;6.20;1.88;;;30.90;53.30;;;;;;4842495;29;20257;-79
2022/05/14 09:46:11;;;;;;;3.55;1.50;;;30.70;58.30;;;;;;4841876;29;20243;-80
2022/05/14 09:48:48;;;;;;;4.40;1.88;;;30.70;55.00;;;;;;4842009;29;20261;-78
2022/05/14 09:51:28;;;;;;;2.97;1.60;;;31.40;56.70;;;;;;4842051;29;20211;-77
2022/05/14 09:54:07;;;;;;;4.45;1.63;;;31.60;55.20;;;;;;4842636;29;20219;-80
2022/05/14 09:57:21;;;;;;;3.22;1.30;;;31.40;56.00;;;;;;4842035;29;20330;-79
2022/05/14 10:00:12;;;;;;;5.18;1.60;;;31.30;55.80;;;;;;4819400;29;20280;-81
2022/05/14 10:02:55;;;;;;;4.82;1.80;;;31.40;53.80;;;;;;4843707;29;20232;-79
2022/05/14 10:05:48;;;;;;;3.40;1.52;;;31.80;54.20;;;;;;4848506;29;20253;-79
2022/05/14 10:08:25;;;;;;;3.50;1.50;;;32.10;51.80;;;;;;4845042;29;20602;-79
2022/05/14 10:11:00;;;;;;;5.43;1.80;;;31.40;53.70;;;;;;4843710;29;20221;-81
2022/05/14 10:13:34;;;;;;;4.13;1.83;;;31.60;55.50;;;;;;4842455;29;20219;-80
2022/05/14 10:16:10;;;;;;;4.93;1.60;;;31.30;55.20;;;;;;4842300;29;20194;-80
2022/05/14 10:18:55;;;;;;;4.57;1.80;;;31.30;57.40;;;;;;4842543;29;20207;-84
2022/05/14 10:21:36;;;;;;;5.55;2.10;;;30.90;56.70;;;;;;4843843;29;20302;-79
2022/05/14 10:27:26;;;;;;;5.05;1.90;;;31.80;51.60;;;;;;4841783;29;20643;-80
2022/05/14 10:30:08;;;;;;;7.15;2.15;;;32.00;54.10;;;;;;4841756;29;20244;-78
2022/05/14 10:32:38;;;;;;;4.97;1.85;;;32.40;53.60;;;;;;4841905;29;20288;-79
2022/05/14 10:35:13;;;;;;;4.20;1.98;;;31.50;51.90;;;;;;4841508;29;20322;-79
2022/05/14 10:37:49;;;;;;;7.10;2.00;;;31.30;52.30;;;;;;4841762;29;20278;-79
2022/05/14 10:40:25;;;;;;;4.65;1.90;;;30.70;54.30;;;;;;4841429;29;20550;-77
2022/05/14 10:43:20;;;;;;;3.63;1.80;;;31.70;56.40;;;;;;4841668;29;20225;-77
2022/05/14 10:45:50;;;;;;;6.32;2.05;;;31.60;54.00;;;;;;4841441;29;20661;-77
2022/05/14 10:48:37;;;;;;;5.75;2.00;;;30.60;57.80;;;;;;4841753;29;20210;-78
2022/05/14 10:51:08;;;;;;;3.33;1.90;;;30.40;58.10;;;;;;4841182;29;20738;-79
2022/05/14 10:53:41;;;;;;;4.22;2.08;;;30.20;57.20;;;;;;4841395;29;20219;-79
2022/05/14 10:56:14;;;;;;;6.72;1.98;;;30.00;59.20;;;;;;4841727;29;20663;-78
2022/05/14 10:58:54;;;;;;;4.28;2.05;;;30.40;60.60;;;;;;4841392;29;20203;-79
2022/05/14 11:01:32;;;;;;;5.03;2.10;;;30.60;57.40;;;;;;4841316;29;20908;-77
2022/05/14 11:04:19;;;;;;;5.20;2.13;;;30.20;59.90;;;;;;4841290;29;20223;-78
2022/05/14 11:06:53;;;;;;;6.05;2.30;;;29.30;58.70;;;;;;4844081;29;20203;-78
2022/05/14 11:09:23;;;;;;;5.60;2.10;;;28.60;64.70;;;;;;4846205;29;20204;-79
2022/05/14 11:11:57;;;;;;;4.97;2.05;;;29.00;61.90;;;;;;4845201;29;20651;-80
2022/05/14 11:14:38;;;;;;;5.43;2.25;;;29.50;60.30;;;;;;4845866;29;20239;-78
2022/05/14 11:17:18;;;;;;;4.88;2.40;;;29.90;58.70;;;;;;4846393;29;20290;-79
2022/05/14 11:19:47;;;;;;;7.22;2.30;;;29.20;58.10;;;;;;4844610;29;20721;-76
2022/05/14 11:22:22;;;;;;;5.32;2.03;;;28.70;60.30;;;;;;4844979;29;20350;-78
2022/05/14 11:24:51;;;;;;;5.60;2.45;;;28.40;62.40;;;;;;4844797;29;20283;-78
2022/05/14 11:27:28;;;;;;;3.10;2.05;;;28.40;63.20;;;;;;4844695;29;20211;-79
2022/05/14 11:30:00;;;;;;;3.67;1.90;;;27.90;59.30;;;;;;4845128;29;20199;-78
2022/05/14 11:32:41;;;;;;;4.47;2.03;;;27.70;59.90;;;;;;4845141;29;20239;-76
2022/05/14 11:35:11;;;;;;;6.45;2.50;;;27.80;66.00;;;;;;4844987;29;20326;-79
2022/05/14 11:37:43;;;;;;;6.65;2.35;;;27.60;65.10;;;;;;4846622;29;20585;-78
2022/05/14 11:40:26;;;;;;;5.90;2.20;;;27.20;60.80;;;;;;4846071;29;20196;-76
2022/05/14 11:43:08;;;;;;;6.10;2.33;;;27.20;62.80;;;;;;4845279;29;20621;-78
2022/05/14 11:45:40;;;;;;;6.60;2.17;;;26.20;62.60;;;;;;4844694;29;20299;-76
2022/05/14 11:48:12;;;;;;;4.30;2.13;;;26.20;64.60;;;;;;4844325;29;20591;-77
2022/05/14 11:50:50;;;;;;;3.67;2.10;;;26.30;69.80;;;;;;4844989;29;20336;-78
2022/05/14 11:53:27;;;;;;;4.40;2.60;;;26.50;71.90;;;;;;4847737;29;20706;-77
2022/05/14 11:56:02;;;;;;;6.43;2.53;;;26.30;68.70;;;;;;4844138;29;20715;-76
2022/05/14 11:58:39;;;;;;;5.57;2.70;;;26.10;72.00;;;;;;4844454;29;20283;-75
2022/05/14 12:01:12;;;;;;;10.67;2.63;;;26.00;71.80;;;;;;4844040;29;20661;-76
2022/05/14 12:03:46;;;;;;;4.67;2.60;;;25.60;68.10;;;;;;4844490;29;20231;-75
2022/05/14 12:06:34;;;;;;;5.40;2.53;;;25.60;72.30;;;;;;4844224;29;20206;-75
2022/05/14 12:09:17;;;;;;;9.50;3.00;;;25.60;73.90;;;;;;4844006;29;20203;-76
2022/05/14 12:11:58;;;;;;;8.20;2.50;;;25.20;68.30;;;;;;4843871;29;20219;-77
2022/05/14 12:14:30;;;;;;;6.43;2.50;;;25.50;70.30;;;;;;4843885;29;20247;-76
2022/05/14 12:17:03;;;;;;;5.73;2.80;;;25.50;72.30;;;;;;4843906;29;20294;-76
2022/05/14 12:19:34;;;;;;;4.40;2.23;;;25.20;66.00;;;;;;4843172;29;20692;-77
2022/05/14 12:22:07;;;;;;;6.23;2.60;;;25.10;70.20;;;;;;4847797;29;20279;-78
2022/05/14 12:24:39;;;;;;;8.43;2.87;;;24.70;71.10;;;;;;4849052;29;20601;-75
2022/05/14 12:27:15;;;;;;;5.80;2.50;;;24.20;71.70;;;;;;4843459;29;20310;-74
2022/05/14 12:29:54;;;;;;;4.30;2.43;;;24.70;73.50;;;;;;4843616;29;20247;-78
2022/05/14 12:35:17;;;;;;;5.23;2.70;;;25.00;69.80;;;;;;4843907;29;20402;-77
2022/05/14 12:37:47;;;;;;;5.67;2.40;;;25.30;73.00;;;;;;4843132;29;20305;-75
2022/05/14 12:40:26;;;;;;;5.33;2.07;;;25.40;74.00;;;;;;4843086;29;20312;-75
2022/05/14 12:42:55;;;;;;;5.13;2.17;;;25.50;69.10;;;;;;4843942;29;20227;-76
2022/05/14 12:45:37;;;;;;;7.73;2.30;;;25.50;67.50;;;;;;4845072;29;20662;-76
2022/05/14 12:48:07;;;;;;;4.27;1.90;;;25.60;69.20;;;;;;4847277;29;20306;-76
2022/05/14 12:50:40;;;;;;;5.20;2.20;;;25.60;69.40;;;;;;4847042;29;20204;-75
2022/05/14 12:53:12;;;;;;;2.87;1.90;;;25.80;67.30;;;;;;4846791;29;20232;-76
2022/05/14 12:55:44;;;;;;;4.53;1.50;;;25.70;70.90;;;;;;4846669;29;20252;-77
2022/05/14 12:58:14;;;;;;;3.43;1.77;;;25.70;66.90;;;;;;4846789;29;20212;-75
2022/05/14 13:00:47;;;;;;;5.07;1.80;;;25.70;64.20;;;;;;4845316;29;20280;-76
2022/05/14 13:03:20;;;;;;;2.90;1.80;;;25.70;66.80;;;;;;4846918;29;20308;-76
2022/05/14 13:05:54;;;;;;;6.10;2.00;;;25.70;68.20;;;;;;4846599;29;20678;-74
2022/05/14 13:08:27;;;;;;;3.43;1.53;;;25.70;64.30;;;;;;4847371;29;20218;-77
2022/05/14 13:10:58;;;;;;;3.40;1.60;;;25.90;62.70;;;;;;4844811;29;20287;-76
2022/05/14 13:13:35;;;;;;;11.10;6.73;;;25.70;62.00;;;;;;4844113;29;20741;-78
2022/05/14 13:16:12;;;;;;;5.27;2.03;;;25.70;69.80;;;;;;4844815;29;20230;-76
2022/05/14 13:18:44;;;;;;;3.30;1.53;;;25.80;64.90;;;;;;4845657;29;20251;-77
2022/05/14 13:21:19;;;;;;;6.30;1.70;;;25.90;61.50;;;;;;4845889;29;20200;-76
2022/05/14 13:24:00;;;;;;;5.30;1.57;;;26.00;58.10;;;;;;4847692;29;20278;-78
2022/05/14 13:26:43;;;;;;;2.40;1.37;;;25.90;61.00;;;;;;4845609;29;20774;-77
2022/05/14 13:29:15;;;;;;;3.30;1.50;;;25.80;59.00;;;;;;4845581;29;20738;-75
2022/05/14 13:31:45;;;;;;;2.77;1.37;;;25.70;58.60;;;;;;4844569;29;20293;-78
2022/05/14 13:37:10;;;;;;;2.97;1.50;;;25.60;62.20;;;;;;4843217;29;20228;-77
2022/05/14 13:39:45;;;;;;;6.57;1.70;;;25.80;62.10;;;;;;4845313;29;20298;-75
2022/05/14 13:42:22;;;;;;;3.17;1.50;;;25.90;62.30;;;;;;4844774;29;20196;-76
2022/05/14 13:44:54;;;;;;;5.00;1.60;;;25.90;64.80;;;;;;4846244;29;20211;-76
2022/05/14 13:47:23;;;;;;;3.83;1.50;;;25.90;64.40;;;;;;4844480;29;20663;-77
2022/05/14 13:49:56;;;;;;;2.57;1.60;;;25.90;62.10;;;;;;4843741;29;20247;-77
2022/05/14 13:52:27;;;;;;;3.57;1.67;;;25.90;63.80;;;;;;4844180;29;20208;-76
2022/05/14 13:55:09;;;;;;;6.33;1.93;;;26.00;62.90;;;;;;4844033;29;20282;-77
2022/05/14 13:57:41;;;;;;;4.53;1.90;;;25.80;67.80;;;;;;4845495;29;20340;-75
2022/05/14 14:00:19;;;;;;;3.13;1.60;;;25.80;63.80;;;;;;4843379;29;20289;-77
2022/05/14 14:03:00;;;;;;;4.00;1.60;;;25.80;63.40;;;;;;4844460;29;20229;-76
2022/05/14 14:05:30;;;;;;;4.40;1.73;;;25.80;65.50;;;;;;4844743;29;20227;-76
2022/05/14 14:07:59;;;;;;;4.13;1.70;;;25.70;64.70;;;;;;4847720;29;20250;-77
2022/05/14 14:10:35;;;;;;;4.00;1.70;;;25.40;59.20;;;;;;4844002;29;20216;-76
2022/05/14 14:13:06;;;;;;;3.37;1.87;;;25.60;64.20;;;;;;4843313;29;20200;-75
2022/05/14 14:15:38;;;;;;;5.17;1.90;;;25.60;66.20;;;;;;4841765;29;20245;-76
2022/05/14 14:18:07;;;;;;;4.63;1.73;;;25.60;64.70;;;;;;4841893;29;20257;-77
2022/05/14 14:20:40;;;;;;;4.77;1.40;;;25.20;67.60;;;;;;4841314;29;20299;-77
2022/05/14 14:23:12;;;;;;;3.60;1.80;;;25.30;67.70;;;;;;4842725;29;20261;-78
2022/05/14 14:25:41;;;;;;;4.37;1.80;;;25.00;66.50;;;;;;4841537;29;20300;-75
2022/05/14 14:28:10;;;;;;;3.57;1.80;;;25.00;69.00;;;;;;4841648;29;20268;-75
2022/05/14 14:30:39;;;;;;;3.27;1.80;;;24.90;65.70;;;;;;4841561;29;20273;-76
2022/05/14 14:33:08;;;;;;;2.67;1.80;;;24.40;68.20;;;;;;4842407;29;20639;-76
2022/05/14 14:35:36;;;;;;;5.70;1.63;;;24.50;71.10;;;;;;4843518;29;20331;-78
2022/05/14 14:38:05;;;;;;;3.23;1.73;;;24.40;73.30;;;;;;4846975;29;20294;-79
2022/05/14 14:40:34;;;;;;;4.87;1.80;;;24.00;66.00;;;;;;4848004;29;20215;-76
2022/05/14 14:43:04;;;;;;;5.17;1.63;;;24.00;69.20;;;;;;4853100;29;20212;-77
2022/05/14 14:45:37;;;;;;;7.23;1.77;;;24.20;73.00;;;;;;4832256;29;20295;-79
2022/05/14 14:48:06;;;;;;;3.87;2.00;;;24.10;71.20;;;;;;4826330;29;20281;-79
2022/05/14 14:50:34;;;;;;;6.80;2.20;;;24.20;69.30;;;;;;4823980;29;20725;-77
2022/05/14 14:53:02;;;;;;;2.33;1.60;;;24.30;69.00;;;;;;4823672;29;20285;-75
2022/05/14 14:55:31;;;;;;;4.93;1.63;;;24.40;68.10;;;;;;4823788;29;20310;-79
2022/05/14 14:57:59;;;;;;;5.70;2.00;;;24.50;70.60;;;;;;4823674;29;20240;-76
2022/05/14 15:00:30;;;;;;;6.87;2.70;;;24.50;71.90;;;;;;4823162;29;20659;-75
2022/05/14 15:03:04;;;;;;;4.00;1.60;;;24.40;68.90;;;;;;4823451;29;20201;-75
2022/05/14 15:05:39;;;;;;;3.33;1.80;;;24.40;70.80;;;;;;4825899;29;20310;-76
2022/05/14 15:08:10;;;;;;;6.00;1.80;;;24.30;72.50;;;;;;4828994;29;20303;-75
2022/05/14 15:10:39;;;;;;;3.73;1.90;;;24.30;69.20;;;;;;4830447;29;20277;-79
2022/05/14 15:13:13;;;;;;;5.97;2.23;;;24.10;69.30;;;;;;4832128;29;20196;-79
2022/05/14 15:15:43;;;;;;;5.33;1.90;;;23.70;68.60;;;;;;4830405;29;20257;-76
2022/05/14 15:18:11;;;;;;;3.53;1.70;;;23.50;70.70;;;;;;4829638;29;20675;-77
2022/05/14 15:20:41;;;;;;;4.57;2.03;;;23.70;70.70;;;;;;4829979;29;20748;-79
2022/05/14 15:23:10;;;;;;;3.77;1.70;;;23.40;70.40;;;;;;4831006;29;20250;-81
2022/05/14 15:25:38;;;;;;;4.33;1.80;;;23.40;70.10;;;;;;4827496;29;20601;-77
2022/05/14 15:28:09;;;;;;;4.90;1.80;;;23.40;72.90;;;;;;4825334;29;20675;-76
2022/05/14 15:30:37;;;;;;;3.87;1.53;;;23.30;70.90;;;;;;4824170;29;20273;-75
2022/05/14 15:33:09;;;;;;;4.50;1.60;;;23.40;71.60;;;;;;4823903;29;20307;-77
2022/05/14 15:35:37;;;;;;;4.63;1.70;;;23.50;70.30;;;;;;4823087;29;20292;-76
2022/05/14 15:38:05;;;;;;;4.07;1.90;;;23.50;71.80;;;;;;4823262;29;20243;-75
2022/05/14 15:40:40;;;;;;;3.30;1.70;;;23.60;70.10;;;;;;4822703;29;20247;-78
2022/05/14 15:43:12;;;;;;;4.43;1.77;;;23.70;68.80;;;;;;4823810;29;20214;-76
2022/05/14 15:45:47;;;;;;;4.50;1.60;;;23.70;68.40;;;;;;4823474;29;20266;-77
2022/05/14 15:48:22;;;;;;;2.43;1.60;;;23.60;67.30;;;;;;4823125;29;20231;-80
2022/05/14 15:50:51;;;;;;;3.40;1.80;;;23.60;69.60;;;;;;4823026;29;20251;-75
2022/05/14 15:53:24;;;;;;;4.07;2.10;;;23.40;68.20;;;;;;4824083;29;20240;-78
2022/05/14 15:55:55;;;;;;;6.07;1.87;;;23.40;68.40;;;;;;4826443;29;20645;-78
2022/05/14 15:58:23;;;;;;;5.30;1.73;;;23.20;67.20;;;;;;4826433;29;20596;-77
2022/05/14 16:00:52;;;;;;;5.70;2.13;;;23.20;67.60;;;;;;4825656;29;20318;-77
2022/05/14 16:03:21;;;;;;;5.43;2.40;;;23.10;63.20;;;;;;4825653;29;20216;-77
2022/05/14 16:05:51;;;;;;;11.47;5.87;;;23.00;66.70;;;;;;4825898;29;20224;-76
2022/05/14 16:08:19;;;;;;;5.70;2.43;;;22.90;66.80;;;;;;4826708;29;20282;-79
2022/05/14 16:16:21;;;;;;;5.87;1.90;;;22.50;64.50;;;;;;4825851;29;20288;-77
2022/05/14 16:18:51;;;;;;;3.43;1.73;;;22.60;66.10;;;;;;4825768;29;20281;-77
2022/05/14 16:21:22;;;;;;;3.67;1.70;;;22.50;71.30;;;;;;4825793;29;20242;-79
2022/05/14 16:23:51;;;;;;;4.40;1.60;;;22.50;69.40;;;;;;4826074;29;20220;-79
2022/05/14 16:26:27;;;;;;;3.23;1.70;;;22.40;70.70;;;;;;4826131;29;20279;-76
2022/05/14 16:28:56;;;;;;;2.87;1.73;;;22.30;71.20;;;;;;4825884;29;20648;-77
2022/05/14 16:31:25;;;;;;;3.90;1.63;;;22.30;74.80;;;;;;4826022;29;20394;-78
2022/05/14 16:33:56;;;;;;;6.07;1.90;;;22.20;73.60;;;;;;4825706;29;20216;-77
2022/05/14 16:36:26;;;;;;;5.73;2.00;;;22.10;73.30;;;;;;4826148;29;20261;-77
2022/05/14 16:38:54;;;;;;;4.00;1.77;;;21.90;70.20;;;;;;4825196;29;20216;-78
2022/05/14 16:41:22;;;;;;;4.57;1.97;;;21.80;74.80;;;;;;4825426;29;20228;-77
2022/05/14 16:43:50;;;;;;;4.30;1.90;;;21.70;74.20;;;;;;4825298;29;20256;-80
2022/05/14 16:46:19;;;;;;;4.53;1.90;;;21.70;73.40;;;;;;4825488;29;20256;-78
2022/05/14 16:48:48;;;;;;;3.93;1.67;;;21.70;72.50;;;;;;4825326;29;20246;-77
2022/05/14 16:51:18;;;;;;;3.87;1.77;;;21.60;71.90;;;;;;4825733;29;20657;-77
2022/05/14 16:53:46;;;;;;;4.90;2.30;;;21.60;73.50;;;;;;4826839;29;20270;-79
2022/05/14 16:56:17;;;;;;;6.40;2.03;;;21.30;72.10;;;;;;4825245;29;20303;-78
2022/05/14 16:58:46;;;;;;;5.43;1.73;;;21.40;73.30;;;;;;4825013;29;20328;-76
2022/05/14 17:01:16;;;;;;;4.83;1.60;;;21.40;75.60;;;;;;4825342;29;20216;-78
2022/05/14 17:03:45;;;;;;;4.10;1.87;;;21.30;75.60;;;;;;4825020;29;20250;-77
2022/05/14 17:06:13;;;;;;;2.97;1.67;;;21.20;72.50;;;;;;4825395;29;20321;-76
2022/05/14 17:08:43;;;;;;;3.37;1.63;;;21.20;73.20;;;;;;4824983;29;20239;-78
2022/05/14 17:11:31;;;;;;;3.27;1.77;;;21.20;73.40;;;;;;4825157;29;20232;-79
2022/05/14 17:13:59;;;;;;;3.73;1.60;;;21.00;75.00;;;;;;4824968;29;20196;-79
2022/05/14 17:16:28;;;;;;;4.30;1.50;;;21.00;73.50;;;;;;4824692;29;20217;-78
2022/05/14 17:18:56;;;;;;;4.30;1.70;;;20.90;75.00;;;;;;4824703;29;20236;-78
2022/05/14 17:21:25;;;;;;;4.50;1.40;;;20.80;75.60;;;;;;4824575;29;20648;-78
2022/05/14 17:23:54;;;;;;;3.27;1.77;;;20.70;72.60;;;;;;4825043;29;20319;-75
2022/05/14 17:26:23;;;;;;;3.83;1.87;;;20.60;73.80;;;;;;4824670;29;20216;-79
2022/05/14 17:28:52;;;;;;;2.80;1.60;;;20.50;77.10;;;;;;4824586;29;20208;-78
2022/05/14 17:31:20;;;;;;;4.10;1.60;;;20.40;77.70;;;;;;4825094;29;20251;-78
2022/05/14 17:33:49;;;;;;;2.17;1.80;;;20.30;75.20;;;;;;4824861;29;20299;-77
2022/05/14 17:36:17;;;;;;;3.10;1.67;;;20.20;75.70;;;;;;4824771;29;20305;-79
2022/05/14 17:41:48;;;;;;;3.67;1.90;;;20.20;74.90;;;;;;4823839;29;20212;-77
2022/05/14 17:44:16;;;;;;;3.70;1.87;;;20.10;73.40;;;;;;4835209;29;20299;-77